Terminal Aerodrome Forecast
Issued by NWS

Home | Current Version | Previous Version | Graphics & Text | Print | Product List | Glossary On
Versions: 1 2 3 4 5 6 7 8 9 10 11 12 13 14 15 16 17 18 19 20 21 22 23 24
199
FTUS43 KICT 250232 AAA
TAFRSL
TAF AMD
KRSL 250232Z 2503/2524 36018G25KT P6SM OVC008
     FM250900 34015G25KT P6SM VCSH OVC015
     FM251200 34015G25KT P6SM OVC015
     FM251800 35015G22KT P6SM BKN025
     FM252000 35010KT P6SM SCT025=

USA.gov is the U.S. government's official web portal to all federal, state and local government web resources and services.